createdAt,value
2018-11-28T00:00:10.675Z,2.60
2018-11-28T00:02:39.152Z,2.60
2018-11-28T00:05:10.895Z,2.60
2018-11-28T00:07:39.349Z,2.70
2018-11-28T00:10:12.780Z,2.70
2018-11-28T00:12:41.381Z,2.70
2018-11-28T00:15:12.000Z,2.80
2018-11-28T00:17:40.476Z,2.80
2018-11-28T00:20:13.239Z,2.90
2018-11-28T00:22:41.928Z,2.90
2018-11-28T00:25:11.281Z,2.90
2018-11-28T00:27:39.714Z,3.00
2018-11-28T00:30:11.150Z,3.10
2018-11-28T00:32:39.806Z,3.10
2018-11-28T00:35:10.627Z,3.20
2018-11-28T00:37:39.112Z,3.10
2018-11-28T00:40:09.355Z,3.00
2018-11-28T00:42:38.310Z,3.00
2018-11-28T00:45:10.552Z,3.00
2018-11-28T00:47:39.193Z,3.10
2018-11-28T00:50:12.525Z,3.10
2018-11-28T00:52:40.818Z,3.20
2018-11-28T00:55:12.168Z,3.10
2018-11-28T00:57:40.608Z,3.20
2018-11-28T01:00:11.363Z,3.10
2018-11-28T01:02:39.706Z,3.20
2018-11-28T01:05:09.567Z,3.30
2018-11-28T01:07:38.020Z,3.20
2018-11-28T01:10:09.702Z,3.20
2018-11-28T01:12:38.067Z,3.20
2018-11-28T01:15:08.364Z,3.20
2018-11-28T01:17:36.746Z,3.20
2018-11-28T01:20:06.808Z,3.20
2018-11-28T01:22:35.253Z,3.20
2018-11-28T01:25:03.695Z,3.20
2018-11-28T01:27:32.366Z,3.30
2018-11-28T01:30:00.727Z,3.40
2018-11-28T01:32:29.139Z,3.30
2018-11-28T01:34:57.453Z,3.20
2018-11-28T01:37:25.833Z,3.20
2018-11-28T01:39:54.254Z,3.40
2018-11-28T01:42:22.598Z,3.20
2018-11-28T01:44:50.895Z,3.20
2018-11-28T01:47:19.367Z,3.10
2018-11-28T01:49:47.900Z,3.10
2018-11-28T01:52:16.894Z,3.20
2018-11-28T01:54:45.276Z,3.00
2018-11-28T01:57:13.694Z,3.00
2018-11-28T01:59:42.009Z,3.00
2018-11-28T02:02:10.722Z,2.90
2018-11-28T02:04:39.101Z,2.90
2018-11-28T02:07:07.554Z,2.80
2018-11-28T02:09:35.957Z,2.80
2018-11-28T02:12:04.624Z,2.70
2018-11-28T02:14:32.979Z,2.70
2018-11-28T02:17:01.337Z,2.70
2018-11-28T02:19:29.723Z,2.60
2018-11-28T02:21:58.073Z,2.60
2018-11-28T02:24:26.413Z,2.60
2018-11-28T02:26:54.812Z,2.60
2018-11-28T02:29:24.329Z,2.80
2018-11-28T02:31:51.612Z,2.80
2018-11-28T02:34:19.950Z,2.90
2018-11-28T02:36:48.304Z,2.90
2018-11-28T02:39:16.641Z,3.00
2018-11-28T02:41:45.003Z,3.10
2018-11-28T02:44:13.350Z,3.00
2018-11-28T02:46:41.712Z,3.00
2018-11-28T02:49:10.053Z,2.90
2018-11-28T02:51:38.403Z,2.80
2018-11-28T02:54:07.182Z,2.70
2018-11-28T02:56:35.738Z,2.70
2018-11-28T02:59:04.201Z,2.70
2018-11-28T03:01:32.564Z,2.60
2018-11-28T03:04:01.032Z,2.60
2018-11-28T03:06:29.364Z,2.60
2018-11-28T03:08:57.705Z,2.60
2018-11-28T03:11:26.036Z,2.40
2018-11-28T03:13:54.391Z,2.50
2018-11-28T03:16:22.759Z,2.40
2018-11-28T03:18:51.174Z,2.30
2018-11-28T03:21:19.446Z,2.20
2018-11-28T03:23:47.825Z,2.30
2018-11-28T03:26:16.273Z,2.30
2018-11-28T03:28:44.719Z,2.20
2018-11-28T03:31:13.065Z,2.20
2018-11-28T03:33:41.434Z,2.10
2018-11-28T03:36:09.769Z,2.20
2018-11-28T03:38:38.133Z,2.40
2018-11-28T03:41:06.479Z,2.30
2018-11-28T03:43:34.920Z,2.30
2018-11-28T03:46:04.405Z,2.30
2018-11-28T03:48:32.826Z,2.30
2018-11-28T03:51:01.169Z,2.40
2018-11-28T03:53:29.574Z,2.30
2018-11-28T03:55:57.920Z,2.10
2018-11-28T03:58:26.281Z,2.20
2018-11-28T04:00:54.755Z,2.20
2018-11-28T04:03:23.662Z,2.20
2018-11-28T04:05:52.076Z,2.30
2018-11-28T04:08:20.460Z,2.30
2018-11-28T04:10:48.920Z,2.20
2018-11-28T04:13:17.245Z,2.10
2018-11-28T04:15:45.593Z,2.10
2018-11-28T04:18:14.985Z,2.10
2018-11-28T04:20:43.325Z,2.10
2018-11-28T04:23:11.833Z,2.20
2018-11-28T04:25:40.179Z,2.00
2018-11-28T04:28:08.567Z,1.90
2018-11-28T04:30:36.862Z,1.90
2018-11-28T04:33:05.379Z,2.00
2018-11-28T04:35:33.730Z,1.90
2018-11-28T04:38:03.276Z,1.80
2018-11-28T04:40:31.638Z,1.90
2018-11-28T04:42:59.956Z,1.90
2018-11-28T04:45:28.333Z,1.90
2018-11-28T04:47:56.728Z,1.80
2018-11-28T04:50:25.031Z,1.70
2018-11-28T04:52:54.648Z,1.60
2018-11-28T04:55:22.996Z,1.60
2018-11-28T04:57:51.289Z,1.60
2018-11-28T05:00:24.670Z,1.50
2018-11-28T05:02:54.190Z,1.60
2018-11-28T05:05:22.506Z,1.60
2018-11-28T05:07:52.912Z,1.60
2018-11-28T05:10:24.041Z,1.50
2018-11-28T05:12:53.075Z,1.50
2018-11-28T05:15:22.356Z,1.60
2018-11-28T05:17:51.481Z,1.70
2018-11-28T05:20:20.998Z,1.60
2018-11-28T05:22:49.658Z,1.70
2018-11-28T05:25:21.279Z,1.60
2018-11-28T05:27:50.660Z,1.60
2018-11-28T05:30:20.762Z,1.50
2018-11-28T05:32:49.239Z,1.50
2018-11-28T05:35:18.744Z,1.60
2018-11-28T05:37:47.225Z,1.60
2018-11-28T05:40:20.455Z,1.60
2018-11-28T05:42:48.841Z,1.60
2018-11-28T05:45:17.335Z,1.50
2018-11-28T05:47:45.990Z,1.50
2018-11-28T05:50:18.794Z,1.40
2018-11-28T05:52:47.151Z,1.30
2018-11-28T05:55:16.309Z,1.30
2018-11-28T05:57:44.868Z,1.30
2018-11-28T06:00:19.577Z,1.30
2018-11-28T06:02:55.617Z,1.30
2018-11-28T06:05:24.063Z,1.20
2018-11-28T06:07:52.435Z,1.20
2018-11-28T06:10:21.054Z,1.30
2018-11-28T06:12:49.623Z,1.30
2018-11-28T06:15:17.969Z,1.20
2018-11-28T06:17:46.488Z,1.10
2018-11-28T06:20:15.431Z,1.00
2018-11-28T06:22:43.814Z,1.00
2018-11-28T06:25:16.178Z,1.00
2018-11-28T06:27:42.524Z,1.00
2018-11-28T06:30:16.954Z,1.00
2018-11-28T06:32:51.007Z,0.90
2018-11-28T06:35:14.192Z,0.80
2018-11-28T06:37:42.697Z,0.90
2018-11-28T06:40:15.058Z,0.90
2018-11-28T06:42:44.216Z,0.90
2018-11-28T06:45:15.781Z,0.80
2018-11-28T06:47:44.134Z,0.80
2018-11-28T06:50:14.452Z,0.80
2018-11-28T06:52:43.670Z,0.80
2018-11-28T06:55:13.242Z,0.90
2018-11-28T06:57:41.634Z,1.00
2018-11-28T07:00:18.121Z,1.10
2018-11-28T07:02:47.141Z,1.10
2018-11-28T07:05:15.576Z,1.10
2018-11-28T07:07:44.005Z,1.30
2018-11-28T07:10:13.697Z,1.30
2018-11-28T07:12:42.902Z,1.30
2018-11-28T07:15:13.302Z,1.30
2018-11-28T07:17:42.048Z,1.20
2018-11-28T07:20:14.353Z,1.30
2018-11-28T07:22:42.816Z,1.20
2018-11-28T07:25:14.056Z,1.30
2018-11-28T07:27:45.024Z,1.30
2018-11-28T07:30:17.261Z,1.30
2018-11-28T07:32:45.849Z,1.30
2018-11-28T07:35:15.337Z,1.30
2018-11-28T07:37:44.174Z,1.40
2018-11-28T07:40:18.408Z,1.40
2018-11-28T07:43:02.409Z,1.40
2018-11-28T07:45:32.799Z,1.50
2018-11-28T07:48:01.270Z,1.40
2018-11-28T07:50:29.574Z,1.50
2018-11-28T07:52:58.401Z,1.40
2018-11-28T07:55:27.314Z,1.40
2018-11-28T07:57:56.257Z,1.40
2018-11-28T08:00:24.870Z,1.40
2018-11-28T08:02:53.371Z,1.40
2018-11-28T08:05:22.061Z,1.40
2018-11-28T08:07:50.401Z,1.50
2018-11-28T08:10:21.880Z,1.60
2018-11-28T08:12:51.435Z,1.50
2018-11-28T08:15:19.837Z,1.70
2018-11-28T08:17:48.453Z,1.60
2018-11-28T08:20:17.362Z,1.60
2018-11-28T08:22:45.800Z,1.80
2018-11-28T08:25:17.356Z,2.00
2018-11-28T08:27:47.329Z,1.90
2018-11-28T08:30:20.101Z,1.80
2018-11-28T08:32:48.583Z,1.70
2018-11-28T08:35:17.356Z,1.80
2018-11-28T08:37:45.868Z,1.80
2018-11-28T08:40:19.811Z,1.90
2018-11-28T08:42:48.414Z,1.90
2018-11-28T08:45:18.464Z,1.90
2018-11-28T08:47:48.573Z,1.70
2018-11-28T08:50:18.523Z,1.80
2018-11-28T08:52:50.391Z,1.70
2018-11-28T08:55:19.068Z,1.70
2018-11-28T08:57:48.616Z,1.60
2018-11-28T09:00:21.088Z,1.70
2018-11-28T09:02:56.541Z,1.70
2018-11-28T09:05:25.181Z,1.70
2018-11-28T09:07:53.700Z,1.60
2018-11-28T09:10:22.311Z,1.60
2018-11-28T09:12:51.210Z,1.70
2018-11-28T09:15:26.918Z,1.80
2018-11-28T09:17:55.760Z,1.90
2018-11-28T09:20:25.133Z,1.80
2018-11-28T09:22:56.173Z,1.70
2018-11-28T09:28:08.939Z,1.90
2018-11-28T09:30:37.563Z,1.90
2018-11-28T09:33:06.488Z,1.90
2018-11-28T09:35:34.871Z,2.00
2018-11-28T09:38:10.297Z,2.00
2018-11-28T09:40:38.654Z,2.10
2018-11-28T09:43:07.162Z,2.10
2018-11-28T09:45:36.776Z,2.00
2018-11-28T09:48:05.360Z,2.10
2018-11-28T09:50:35.754Z,2.10
2018-11-28T09:53:04.201Z,2.10
2018-11-28T09:55:33.889Z,2.00
2018-11-28T09:58:03.055Z,1.90
2018-11-28T10:00:32.774Z,2.10
2018-11-28T10:03:02.169Z,2.40
2018-11-28T10:05:35.036Z,2.30
2018-11-28T10:08:03.916Z,2.40
2018-11-28T10:10:32.883Z,2.40
2018-11-28T10:13:01.300Z,2.40
2018-11-28T10:15:35.278Z,2.60
2018-11-28T10:18:00.994Z,2.60
2018-11-28T10:20:29.501Z,2.50
2018-11-28T10:22:58.832Z,2.40
2018-11-28T10:25:27.470Z,2.20
2018-11-28T10:28:05.400Z,2.40
2018-11-28T10:30:36.281Z,2.60
2018-11-28T10:33:15.193Z,2.70
2018-11-28T10:35:43.865Z,2.80
2018-11-28T10:38:13.890Z,2.80
2018-11-28T10:40:42.855Z,2.80
2018-11-28T10:43:11.698Z,2.80
2018-11-28T10:45:40.931Z,2.80
2018-11-28T10:48:15.397Z,2.70
2018-11-28T10:50:45.342Z,2.70
2018-11-28T10:53:15.641Z,2.40
2018-11-28T10:55:45.438Z,2.40
2018-11-28T10:58:14.495Z,2.50
2018-11-28T11:00:48.714Z,2.60
2018-11-28T11:03:23.341Z,2.60
2018-11-28T11:05:58.313Z,2.70
2018-11-28T11:08:28.716Z,2.60
2018-11-28T11:11:03.853Z,2.60
2018-11-28T11:13:38.114Z,2.60
2018-11-28T11:16:07.969Z,2.50
2018-11-28T11:18:38.919Z,2.70
2018-11-28T11:21:08.126Z,2.70
2018-11-28T11:23:37.579Z,2.80
2018-11-28T11:26:06.499Z,2.70
2018-11-28T11:28:39.432Z,2.70
2018-11-28T11:31:09.045Z,2.70
2018-11-28T11:33:38.377Z,2.70
2018-11-28T11:36:09.123Z,2.90
2018-11-28T11:38:38.680Z,2.90
2018-11-28T11:41:07.402Z,2.80
2018-11-28T11:43:36.239Z,2.90
2018-11-28T11:46:05.720Z,2.80
2018-11-28T11:54:28.066Z,3.00
2018-11-28T11:56:58.898Z,2.90
2018-11-28T11:59:27.894Z,2.80
2018-11-28T12:01:57.072Z,2.70
2018-11-28T12:04:25.408Z,2.70
2018-11-28T12:06:54.963Z,2.80
2018-11-28T12:09:24.149Z,2.80
2018-11-28T12:11:53.542Z,2.90
2018-11-28T12:14:22.013Z,3.00
2018-11-28T12:16:50.539Z,2.90
2018-11-28T12:19:20.188Z,3.00
2018-11-28T12:21:48.590Z,2.90
2018-11-28T12:24:17.171Z,2.90
2018-11-28T12:26:45.818Z,2.90
2018-11-28T12:29:15.402Z,2.70
2018-11-28T12:31:45.856Z,2.60
2018-11-28T12:34:14.857Z,2.60
2018-11-28T12:36:44.319Z,2.90
2018-11-28T12:39:14.140Z,3.00
2018-11-28T12:41:43.087Z,3.00
2018-11-28T12:44:12.621Z,2.90
2018-11-28T12:46:41.818Z,3.00
2018-11-28T12:49:11.134Z,3.00
2018-11-28T12:51:40.399Z,2.90
2018-11-28T12:54:09.512Z,3.00
2018-11-28T12:56:38.860Z,3.20
2018-11-28T12:59:07.983Z,3.30
2018-11-28T13:01:37.157Z,3.30
2018-11-28T13:04:06.975Z,3.10
2018-11-28T13:09:17.966Z,3.00
2018-11-28T13:11:46.293Z,2.90
2018-11-28T13:14:14.857Z,2.90
2018-11-28T13:16:44.687Z,2.90
2018-11-28T13:19:13.895Z,3.00
2018-11-28T13:21:43.094Z,2.90
2018-11-28T13:24:12.394Z,2.80
2018-11-28T13:26:41.433Z,2.70
2018-11-28T13:29:12.053Z,2.70
2018-11-28T13:31:43.417Z,2.60
2018-11-28T13:34:12.739Z,2.60
2018-11-28T13:36:41.942Z,2.60
2018-11-28T13:39:11.290Z,2.60
2018-11-28T13:41:39.650Z,2.60
2018-11-28T13:44:08.007Z,2.60
2018-11-28T13:46:36.365Z,2.60
2018-11-28T13:49:04.987Z,2.60
2018-11-28T13:51:33.570Z,2.50
2018-11-28T13:54:20.547Z,2.50
2018-11-28T13:56:58.289Z,2.50
2018-11-28T13:58:59.889Z,2.50
2018-11-28T14:01:28.422Z,2.50
2018-11-28T14:03:56.754Z,2.60
2018-11-28T14:06:25.195Z,2.50
2018-11-28T14:08:55.309Z,2.50
2018-11-28T14:11:23.644Z,2.40
2018-11-28T14:13:52.113Z,2.30
2018-11-28T14:16:21.395Z,2.30
2018-11-28T14:18:49.889Z,2.30
2018-11-28T14:21:18.464Z,2.30
2018-11-28T14:23:46.935Z,2.30
2018-11-28T14:26:15.388Z,2.30
2018-11-28T14:28:43.958Z,2.30
2018-11-28T14:31:12.425Z,2.30
2018-11-28T14:33:41.047Z,2.30
2018-11-28T14:36:09.427Z,2.30
2018-11-28T14:38:38.309Z,2.40
2018-11-28T14:41:06.947Z,2.60
2018-11-28T14:43:36.446Z,2.60
2018-11-28T14:46:04.945Z,2.50
2018-11-28T14:48:33.321Z,2.40
2018-11-28T14:51:01.819Z,2.50
2018-11-28T14:53:30.363Z,2.50
2018-11-28T14:55:59.022Z,2.50
2018-11-28T14:58:27.660Z,2.30
2018-11-28T15:00:55.881Z,2.20
2018-11-28T15:03:24.689Z,2.10
2018-11-28T15:06:02.836Z,2.10
2018-11-28T15:08:31.880Z,2.10
2018-11-28T15:11:09.000Z,2.10
2018-11-28T15:13:37.817Z,2.30
2018-11-28T15:16:06.715Z,2.20
2018-11-28T15:18:35.185Z,2.10
2018-11-28T15:21:03.596Z,2.10
2018-11-28T15:23:32.090Z,2.00
2018-11-28T15:26:00.780Z,2.00
2018-11-28T15:28:29.156Z,2.00
2018-11-28T15:30:57.688Z,2.00
2018-11-28T15:33:26.027Z,2.20
2018-11-28T15:35:54.397Z,2.30
2018-11-28T15:38:23.157Z,2.20
2018-11-28T15:40:52.594Z,2.20
2018-11-28T15:43:21.126Z,2.20
2018-11-28T15:45:50.387Z,2.10
2018-11-28T15:48:18.845Z,1.90
2018-11-28T15:50:47.312Z,1.90
2018-11-28T15:53:15.673Z,1.80
2018-11-28T15:55:44.216Z,1.80
2018-11-28T15:58:12.599Z,1.70
2018-11-28T16:00:40.921Z,1.70
2018-11-28T16:03:09.337Z,1.80
2018-11-28T16:05:39.626Z,1.80
2018-11-28T16:08:07.989Z,1.80
2018-11-28T16:10:43.346Z,1.90
2018-11-28T16:13:15.040Z,2.00
2018-11-28T16:15:54.402Z,2.00
2018-11-28T16:18:23.160Z,2.00
2018-11-28T16:20:51.656Z,2.00
2018-11-28T16:23:19.985Z,2.00
2018-11-28T16:25:48.326Z,2.00
2018-11-28T16:28:16.834Z,1.90
2018-11-28T16:30:45.293Z,2.00
2018-11-28T16:33:13.658Z,2.00
2018-11-28T16:35:42.048Z,2.00
2018-11-28T16:38:10.366Z,2.00
2018-11-28T16:40:38.612Z,1.90
2018-11-28T16:43:06.853Z,2.00
2018-11-28T16:45:35.284Z,1.90
2018-11-28T16:48:03.750Z,1.80
2018-11-28T16:50:32.253Z,1.90
2018-11-28T16:53:00.643Z,1.90
2018-11-28T16:55:29.314Z,2.00
2018-11-28T16:57:58.000Z,1.90
2018-11-28T17:00:28.910Z,1.90
2018-11-28T17:02:57.633Z,1.80
2018-11-28T17:05:27.357Z,1.80
2018-11-28T17:07:55.937Z,1.90
2018-11-28T17:10:26.325Z,1.90
2018-11-28T17:12:55.239Z,1.70
2018-11-28T17:15:23.621Z,1.80
2018-11-28T17:17:52.031Z,1.90
2018-11-28T17:20:21.375Z,1.90
2018-11-28T17:22:50.753Z,1.80
2018-11-28T17:25:21.454Z,1.90
2018-11-28T17:27:49.759Z,1.90
2018-11-28T17:30:22.436Z,1.90
2018-11-28T17:32:50.918Z,1.80
2018-11-28T17:35:19.750Z,1.80
2018-11-28T17:37:48.679Z,1.80
2018-11-28T17:40:20.346Z,1.80
2018-11-28T17:42:50.937Z,1.80
2018-11-28T17:45:19.520Z,1.90
2018-11-28T17:47:48.458Z,1.80
2018-11-28T17:50:19.849Z,1.80
2018-11-28T17:52:51.164Z,1.90
2018-11-28T17:55:19.570Z,1.70
2018-11-28T18:00:22.817Z,1.70
2018-11-28T18:02:51.303Z,1.80
2018-11-28T18:05:19.671Z,1.90
2018-11-28T18:07:48.126Z,2.00
2018-11-28T18:10:17.680Z,1.90
2018-11-28T18:12:57.321Z,1.90
2018-11-28T18:15:25.642Z,1.90
2018-11-28T18:17:55.634Z,1.90
2018-11-28T18:20:23.954Z,1.90
2018-11-28T18:22:52.424Z,1.90
2018-11-28T18:25:21.187Z,1.90
2018-11-28T18:27:49.967Z,1.70
2018-11-28T18:30:17.993Z,1.70
2018-11-28T18:32:46.452Z,1.70
2018-11-28T18:35:14.733Z,1.70
2018-11-28T18:37:43.044Z,1.60
2018-11-28T18:40:12.794Z,1.60
2018-11-28T18:42:42.685Z,1.80
2018-11-28T18:45:18.472Z,1.90
2018-11-28T18:47:46.508Z,1.70
2018-11-28T18:50:15.050Z,1.70
2018-11-28T18:52:43.426Z,1.90
2018-11-28T18:55:16.723Z,1.60
2018-11-28T18:57:43.317Z,1.60
2018-11-28T19:00:17.854Z,1.60
2018-11-28T19:02:46.117Z,1.70
2018-11-28T19:05:14.601Z,1.60
2018-11-28T19:07:43.016Z,1.90
2018-11-28T19:10:13.535Z,1.90
2018-11-28T19:12:41.875Z,1.70
2018-11-28T19:15:13.433Z,1.60
2018-11-28T19:17:42.023Z,1.80
2018-11-28T19:20:11.713Z,1.80
2018-11-28T19:22:40.147Z,1.90
2018-11-28T19:25:14.429Z,1.90
2018-11-28T19:27:42.956Z,1.90
2018-11-28T19:30:12.570Z,1.80
2018-11-28T19:32:41.454Z,1.70
2018-11-28T19:35:10.760Z,1.60
2018-11-28T19:37:40.181Z,1.60
2018-11-28T19:40:11.339Z,1.70
2018-11-28T19:42:40.359Z,1.70
2018-11-28T19:45:10.027Z,1.70
2018-11-28T19:47:38.506Z,1.60
2018-11-28T19:50:18.347Z,1.60
2018-11-28T19:52:47.062Z,1.60
2018-11-28T19:55:16.009Z,1.60
2018-11-28T19:57:45.122Z,1.60
2018-11-28T20:00:15.562Z,1.40
2018-11-28T20:02:44.588Z,1.40
2018-11-28T20:05:13.466Z,1.30
2018-11-28T20:07:45.536Z,1.40
2018-11-28T20:10:16.288Z,1.40
2018-11-28T20:12:44.757Z,1.50
2018-11-28T20:15:18.989Z,1.30
2018-11-28T20:17:47.465Z,1.50
2018-11-28T20:20:16.799Z,1.60
2018-11-28T20:22:45.387Z,1.50
2018-11-28T20:25:16.397Z,1.50
2018-11-28T20:27:46.071Z,1.50
2018-11-28T20:30:16.146Z,1.50
2018-11-28T20:32:44.617Z,1.60
2018-11-28T20:35:13.103Z,1.50
2018-11-28T20:37:41.832Z,1.70
2018-11-28T20:40:12.799Z,1.70
2018-11-28T20:42:42.958Z,1.70
2018-11-28T20:45:12.755Z,1.60
2018-11-28T20:47:41.155Z,1.60
2018-11-28T20:50:13.274Z,1.60
2018-11-28T20:52:42.903Z,1.50
2018-11-28T20:55:11.384Z,1.50
2018-11-28T20:57:39.734Z,1.60
2018-11-28T21:00:14.056Z,1.60
2018-11-28T21:02:42.526Z,1.70
2018-11-28T21:05:11.013Z,1.70
2018-11-28T21:07:39.987Z,1.70
2018-11-28T21:10:17.308Z,1.60
2018-11-28T21:12:45.694Z,1.50
2018-11-28T21:15:15.034Z,1.60
2018-11-28T21:17:45.378Z,1.60
2018-11-28T21:20:15.853Z,1.50
2018-11-28T21:22:45.661Z,1.50
2018-11-28T21:25:13.974Z,1.50
2018-11-28T21:27:42.930Z,1.60
2018-11-28T21:30:14.685Z,1.60
2018-11-28T21:32:43.751Z,1.60
2018-11-28T21:35:14.502Z,1.60
2018-11-28T21:37:42.873Z,1.70
2018-11-28T21:40:11.599Z,1.70
2018-11-28T21:42:39.901Z,1.80
2018-11-28T21:45:12.836Z,1.70
2018-11-28T21:47:41.705Z,1.90
2018-11-28T21:50:13.993Z,1.80
2018-11-28T21:52:42.950Z,1.60
2018-11-28T21:55:12.439Z,1.50
2018-11-28T21:57:40.938Z,1.60
2018-11-28T22:00:16.687Z,1.80
2018-11-28T22:02:44.933Z,1.80
2018-11-28T22:05:14.213Z,1.80
2018-11-28T22:07:42.624Z,1.80
2018-11-28T22:10:14.865Z,1.90
2018-11-28T22:12:43.191Z,1.80
2018-11-28T22:15:14.311Z,1.70
2018-11-28T22:17:43.887Z,1.50
2018-11-28T22:20:13.612Z,1.40
2018-11-28T22:22:41.982Z,1.50
2018-11-28T22:25:19.112Z,1.70
2018-11-28T22:27:47.581Z,1.70
2018-11-28T22:30:20.131Z,1.70
2018-11-28T22:32:48.549Z,1.80
2018-11-28T22:35:17.457Z,1.80
2018-11-28T22:37:45.834Z,1.60
2018-11-28T22:40:31.041Z,1.60
2018-11-28T22:42:59.354Z,1.70
2018-11-28T22:45:32.577Z,1.60
2018-11-28T22:48:02.716Z,1.60
2018-11-28T22:50:31.987Z,1.60
2018-11-28T22:53:00.492Z,1.70
2018-11-28T22:55:29.275Z,1.60
2018-11-28T22:57:57.637Z,1.50
2018-11-28T23:00:31.697Z,1.50
2018-11-28T23:03:02.470Z,1.50
2018-11-28T23:05:35.012Z,1.70
2018-11-28T23:08:04.537Z,1.80
2018-11-28T23:10:32.868Z,1.70
2018-11-28T23:13:01.156Z,1.70
2018-11-28T23:15:30.073Z,1.60
2018-11-28T23:17:59.149Z,1.50
2018-11-28T23:20:27.435Z,1.60
2018-11-28T23:22:55.918Z,1.60
2018-11-28T23:25:24.419Z,1.60
2018-11-28T23:27:53.240Z,1.60
2018-11-28T23:30:22.300Z,1.50
2018-11-28T23:32:52.430Z,1.50
2018-11-28T23:35:20.773Z,1.50
2018-11-28T23:37:49.530Z,1.50
2018-11-28T23:40:23.734Z,1.40
2018-11-28T23:42:52.604Z,1.40
2018-11-28T23:45:21.188Z,1.60
2018-11-28T23:47:49.728Z,1.70
2018-11-28T23:50:18.688Z,1.60
2018-11-28T23:52:47.788Z,1.60
2018-11-28T23:55:18.108Z,1.50
2018-11-28T23:57:46.514Z,1.50
